Time;durP1;ratioP1;P1;durP2;ratioP2;P2;SDS_P1;SDS_P2;PMS_P1;PMS_P2;Temp;Humidity;BMP_temperature;BMP_pressure;BME280_temperature;BME280_humidity;BME280_pressure;Samples;Min_cycle;Max_cycle;Signal;HPM_P1;HPM_P2
2023/08/04 00:00:23;;;;;;;5.22;3.05;;;16.70;99.90;;;;;;5036467;28;20052;-66
2023/08/04 00:02:50;;;;;;;7.50;2.83;;;16.70;99.90;;;;;;5037257;28;20452;-66
2023/08/04 00:05:16;;;;;;;7.72;2.63;;;16.60;99.90;;;;;;5028095;28;20060;-66
2023/08/04 00:07:43;;;;;;;6.15;2.60;;;16.60;99.90;;;;;;5056622;28;20056;-66
2023/08/04 00:10:09;;;;;;;5.47;2.80;;;16.50;99.90;;;;;;5057387;28;20117;-66
2023/08/04 00:12:36;;;;;;;4.43;2.88;;;16.50;99.90;;;;;;5057012;28;20060;-66
2023/08/04 00:15:02;;;;;;;6.97;2.67;;;16.40;99.90;;;;;;5050993;28;20049;-67
2023/08/04 00:17:28;;;;;;;6.60;2.85;;;16.50;99.90;;;;;;5036335;28;20091;-67
2023/08/04 00:19:55;;;;;;;6.03;2.80;;;16.40;99.90;;;;;;5036675;28;20358;-66
2023/08/04 00:22:22;;;;;;;8.20;2.65;;;16.40;99.90;;;;;;5020142;28;20558;-66
2023/08/04 00:24:48;;;;;;;6.55;2.50;;;16.40;99.90;;;;;;5040041;28;20109;-67
2023/08/04 00:27:16;;;;;;;7.38;2.60;;;16.30;99.90;;;;;;5039916;28;20472;-66
2023/08/04 00:29:42;;;;;;;9.00;2.60;;;16.40;99.90;;;;;;5056629;28;20052;-66
2023/08/04 00:32:08;;;;;;;6.20;2.53;;;16.30;99.90;;;;;;5056655;28;20358;-66
2023/08/04 00:34:34;;;;;;;8.60;3.33;;;16.30;99.90;;;;;;5054259;28;20048;-67
2023/08/04 00:37:01;;;;;;;4.97;2.30;;;16.20;99.90;;;;;;5036477;28;20063;-66
2023/08/04 00:39:27;;;;;;;4.65;2.75;;;16.20;99.90;;;;;;5036672;28;20106;-67
2023/08/04 00:41:53;;;;;;;7.97;2.65;;;16.10;99.90;;;;;;5033071;28;20057;-66
2023/08/04 00:44:20;;;;;;;5.78;3.13;;;16.00;99.90;;;;;;5033063;28;20055;-67
2023/08/04 00:46:46;;;;;;;6.22;2.60;;;16.00;99.90;;;;;;5051840;28;20110;-67
2023/08/04 00:49:13;;;;;;;6.93;2.33;;;16.00;99.90;;;;;;5035860;28;20045;-66
2023/08/04 00:51:39;;;;;;;6.93;2.70;;;15.90;99.90;;;;;;5036610;28;20071;-67
2023/08/04 00:54:06;;;;;;;6.85;2.33;;;15.90;99.90;;;;;;5036462;28;20053;-66
2023/08/04 00:56:34;;;;;;;6.35;2.63;;;15.90;99.90;;;;;;5035034;28;20052;-66
2023/08/04 00:59:00;;;;;;;4.60;2.70;;;15.80;99.90;;;;;;5019148;28;20050;-66
2023/08/04 01:01:27;;;;;;;6.38;2.10;;;15.80;99.90;;;;;;5036176;28;20057;-66
2023/08/04 01:03:55;;;;;;;5.93;2.35;;;15.80;99.90;;;;;;5035993;28;20047;-66
2023/08/04 01:06:42;;;;;;;5.00;2.05;;;15.70;99.90;;;;;;5035558;28;20362;-67
2023/08/04 01:09:49;;;;;;;6.57;2.22;;;15.80;99.90;;;;;;5035865;28;20045;-67
2023/08/04 01:12:22;;;;;;;5.25;2.10;;;15.70;99.90;;;;;;5036020;28;20383;-67
2023/08/04 01:14:51;;;;;;;6.55;2.10;;;15.80;99.90;;;;;;5032249;28;20049;-67
2023/08/04 01:17:29;;;;;;;4.85;2.22;;;15.70;99.90;;;;;;5016073;28;20064;-68
2023/08/04 01:19:56;;;;;;;7.70;2.03;;;15.70;99.90;;;;;;5016080;28;20053;-67
2023/08/04 01:22:24;;;;;;;2.75;1.85;;;15.70;99.90;;;;;;5015958;28;20054;-66
2023/08/04 01:24:54;;;;;;;5.10;2.10;;;15.70;99.90;;;;;;5016808;28;20041;-67
2023/08/04 01:27:28;;;;;;;5.68;1.90;;;15.70;99.90;;;;;;4999613;28;20057;-67
2023/08/04 01:29:57;;;;;;;5.32;1.92;;;15.70;99.90;;;;;;5015710;28;20523;-67
2023/08/04 01:32:23;;;;;;;3.15;1.92;;;15.60;99.90;;;;;;5015836;28;20458;-66
2023/08/04 01:34:51;;;;;;;6.40;1.80;;;15.70;99.90;;;;;;5016114;28;20052;-66
2023/08/04 01:37:17;;;;;;;5.40;1.48;;;15.70;99.90;;;;;;5015467;28;20505;-66
2023/08/04 01:39:43;;;;;;;3.80;1.60;;;15.60;99.90;;;;;;5015320;28;20463;-66
2023/08/04 01:42:09;;;;;;;4.88;1.55;;;15.60;99.90;;;;;;4999198;28;20050;-67
2023/08/04 01:44:36;;;;;;;4.22;2.00;;;15.70;99.90;;;;;;5017172;28;20461;-67
2023/08/04 01:47:03;;;;;;;3.75;1.50;;;15.60;99.90;;;;;;5018474;28;20056;-67
2023/08/04 01:49:29;;;;;;;2.40;1.52;;;15.60;99.90;;;;;;5018516;28;20048;-66
2023/08/04 01:51:55;;;;;;;7.63;2.25;;;15.60;99.90;;;;;;5034677;28;20056;-66
2023/08/04 01:54:21;;;;;;;4.65;1.52;;;15.60;99.90;;;;;;5035021;28;20048;-66
2023/08/04 01:56:48;;;;;;;2.80;1.58;;;15.60;99.90;;;;;;5015958;28;20375;-66
2023/08/04 01:59:15;;;;;;;3.58;1.67;;;15.60;99.90;;;;;;4998285;28;20053;-66
2023/08/04 02:01:42;;;;;;;2.60;1.45;;;15.60;99.90;;;;;;5015191;28;20049;-66
2023/08/04 02:04:08;;;;;;;2.95;1.50;;;15.40;99.90;;;;;;4999185;28;20045;-66
2023/08/04 02:06:35;;;;;;;4.85;1.50;;;15.40;99.90;;;;;;5032407;28;20048;-66
2023/08/04 02:09:03;;;;;;;4.32;1.35;;;15.50;99.90;;;;;;5051824;28;20390;-67
2023/08/04 02:11:31;;;;;;;2.50;1.30;;;15.40;99.90;;;;;;5034904;28;20052;-66
2023/08/04 02:14:00;;;;;;;3.00;1.70;;;15.40;99.90;;;;;;5034691;28;20111;-66
2023/08/04 02:16:26;;;;;;;4.72;1.52;;;15.50;99.90;;;;;;5034275;28;20098;-66
2023/08/04 02:19:01;;;;;;;3.50;1.40;;;15.50;99.90;;;;;;5034106;28;20063;-66
2023/08/04 02:21:27;;;;;;;4.30;1.52;;;15.50;99.90;;;;;;5034067;28;20052;-67
2023/08/04 02:23:53;;;;;;;4.13;1.90;;;15.50;99.90;;;;;;5034759;28;20391;-66
2023/08/04 02:26:20;;;;;;;5.60;1.90;;;15.60;99.90;;;;;;5033974;28;20053;-66
2023/08/04 02:28:46;;;;;;;3.92;2.03;;;15.60;99.90;;;;;;5033913;28;20049;-66
2023/08/04 02:31:12;;;;;;;3.63;1.52;;;15.60;99.90;;;;;;5034607;28;20136;-66
2023/08/04 02:33:38;;;;;;;3.88;1.67;;;15.60;99.90;;;;;;5035122;28;20447;-64
2023/08/04 02:36:05;;;;;;;3.45;1.63;;;15.60;99.90;;;;;;5033853;28;20056;-67
2023/08/04 02:38:31;;;;;;;4.40;1.95;;;15.60;99.90;;;;;;5033801;28;20315;-66
2023/08/04 02:41:04;;;;;;;4.80;2.42;;;15.70;99.90;;;;;;5034329;28;20106;-66
2023/08/04 02:43:30;;;;;;;4.07;1.75;;;15.60;99.90;;;;;;5034191;28;20055;-66
2023/08/04 02:45:57;;;;;;;5.93;1.80;;;15.60;99.90;;;;;;5034135;28;20099;-67
2023/08/04 02:48:23;;;;;;;3.97;1.75;;;15.70;99.90;;;;;;5033626;28;20443;-66
2023/08/04 02:51:04;;;;;;;4.95;2.00;;;15.70;99.90;;;;;;5034102;28;20264;-66
2023/08/04 02:53:32;;;;;;;3.63;1.73;;;15.60;99.90;;;;;;5017487;28;20057;-66
2023/08/04 02:55:58;;;;;;;4.63;1.75;;;15.80;99.90;;;;;;5033578;28;20049;-66
2023/08/04 02:58:26;;;;;;;3.95;2.05;;;15.70;99.90;;;;;;5033223;28;20092;-67
2023/08/04 03:00:53;;;;;;;4.10;1.90;;;15.70;99.90;;;;;;5034254;28;20059;-67
2023/08/04 03:03:20;;;;;;;2.78;1.55;;;15.70;99.90;;;;;;5034055;28;20044;-66
2023/08/04 03:05:48;;;;;;;4.07;1.77;;;15.80;99.90;;;;;;5033814;28;20069;-66
2023/08/04 03:08:21;;;;;;;4.70;2.20;;;15.70;99.90;;;;;;5033482;28;20055;-66
2023/08/04 03:10:48;;;;;;;5.47;2.00;;;15.70;99.90;;;;;;5035267;28;20131;-66
2023/08/04 03:13:14;;;;;;;3.50;1.90;;;15.80;99.90;;;;;;5019171;28;20045;-66
2023/08/04 03:15:41;;;;;;;3.70;1.75;;;15.70;99.90;;;;;;5034114;28;20045;-67
2023/08/04 03:18:07;;;;;;;4.28;1.70;;;15.80;99.90;;;;;;5017143;28;20045;-66
2023/08/04 03:20:38;;;;;;;3.95;1.95;;;15.80;99.90;;;;;;5033686;28;20057;-64
2023/08/04 03:23:05;;;;;;;4.70;1.95;;;15.70;99.90;;;;;;5033647;28;20053;-64
2023/08/04 03:25:32;;;;;;;5.35;2.10;;;15.80;99.90;;;;;;5033442;28;20551;-65
2023/08/04 03:27:59;;;;;;;4.13;1.77;;;15.70;99.90;;;;;;5033141;28;20428;-65
2023/08/04 03:30:25;;;;;;;5.18;2.00;;;15.80;99.90;;;;;;5033583;28;20247;-65
2023/08/04 03:32:51;;;;;;;4.68;1.90;;;15.70;99.90;;;;;;5033592;28;20088;-65
2023/08/04 03:35:17;;;;;;;6.55;2.00;;;15.70;99.90;;;;;;5036356;28;20110;-65
2023/08/04 03:37:44;;;;;;;6.75;2.17;;;15.70;99.90;;;;;;5037364;28;20045;-64
2023/08/04 03:40:11;;;;;;;7.97;2.17;;;15.80;99.90;;;;;;5037898;28;20049;-65
2023/08/04 03:42:38;;;;;;;3.78;1.58;;;15.70;99.90;;;;;;5037511;28;20056;-65
2023/08/04 03:45:08;;;;;;;4.28;1.92;;;15.80;99.90;;;;;;5054303;28;20037;-64
2023/08/04 03:47:35;;;;;;;3.40;1.80;;;15.80;99.90;;;;;;5037311;28;20060;-65
2023/08/04 03:50:03;;;;;;;4.90;2.03;;;15.80;99.90;;;;;;5020709;28;20523;-65
2023/08/04 03:52:29;;;;;;;5.00;2.22;;;15.80;99.90;;;;;;5037410;28;20053;-65
2023/08/04 03:54:55;;;;;;;4.75;2.15;;;15.80;99.90;;;;;;5018362;28;20051;-65
2023/08/04 03:57:22;;;;;;;3.17;1.92;;;16.00;99.90;;;;;;5034433;28;20053;-65
2023/08/04 03:59:48;;;;;;;4.45;1.80;;;15.90;99.90;;;;;;5001138;28;20413;-65
2023/08/04 04:02:14;;;;;;;4.88;2.17;;;15.90;99.90;;;;;;5017278;28;20056;-65
2023/08/04 04:04:41;;;;;;;4.20;1.83;;;15.80;99.90;;;;;;5018084;28;20061;-65
2023/08/04 04:07:07;;;;;;;3.70;1.98;;;15.90;99.90;;;;;;5054614;28;20369;-64
2023/08/04 04:09:33;;;;;;;5.85;1.75;;;15.80;99.90;;;;;;5036973;28;20405;-65
2023/08/04 04:12:01;;;;;;;4.75;1.85;;;15.90;99.90;;;;;;5020849;28;20049;-65
2023/08/04 04:14:27;;;;;;;4.32;1.70;;;15.90;99.90;;;;;;5020558;28;20431;-65
2023/08/04 04:16:53;;;;;;;6.15;2.10;;;16.00;99.90;;;;;;5037132;28;20480;-65
2023/08/04 04:19:19;;;;;;;4.68;1.63;;;16.00;99.90;;;;;;5020888;28;20049;-65
2023/08/04 04:21:45;;;;;;;5.35;1.65;;;15.90;99.90;;;;;;5036607;28;20456;-65
2023/08/04 04:24:12;;;;;;;3.85;1.50;;;16.00;99.90;;;;;;5037186;28;20045;-65
2023/08/04 04:26:39;;;;;;;5.22;1.80;;;16.00;99.90;;;;;;5036923;28;20114;-65
2023/08/04 04:29:05;;;;;;;4.00;1.67;;;16.10;99.90;;;;;;5037115;28;20048;-64
2023/08/04 04:31:31;;;;;;;4.82;1.70;;;16.10;99.90;;;;;;5022629;28;20053;-65
2023/08/04 04:33:57;;;;;;;3.25;1.83;;;16.10;99.90;;;;;;5043767;28;20048;-65
2023/08/04 04:36:24;;;;;;;4.57;2.05;;;16.00;99.90;;;;;;5035349;28;20048;-65
2023/08/04 04:38:50;;;;;;;4.38;1.90;;;16.10;99.90;;;;;;5035561;28;20049;-65
2023/08/04 04:41:48;;;;;;;3.05;1.90;;;16.00;99.90;;;;;;5019391;28;20540;-65
2023/08/04 04:44:14;;;;;;;2.92;1.55;;;16.00;99.90;;;;;;5035432;28;20060;-65
2023/08/04 04:46:41;;;;;;;3.42;1.58;;;16.00;99.90;;;;;;5036287;28;20453;-66
2023/08/04 04:49:08;;;;;;;3.47;1.80;;;16.00;99.90;;;;;;5036234;28;20045;-65
2023/08/04 04:51:34;;;;;;;3.13;1.73;;;16.10;99.90;;;;;;5035844;28;20057;-65
2023/08/04 04:54:00;;;;;;;5.63;2.50;;;16.00;99.90;;;;;;5036283;28;20111;-65
2023/08/04 04:56:27;;;;;;;5.32;1.90;;;16.00;99.90;;;;;;5035977;28;20045;-65
2023/08/04 04:58:53;;;;;;;4.38;1.77;;;16.00;99.90;;;;;;5035418;28;20052;-64
2023/08/04 05:01:20;;;;;;;5.25;1.50;;;16.00;99.90;;;;;;5033449;28;20037;-65
2023/08/04 05:03:47;;;;;;;4.70;1.80;;;16.10;99.90;;;;;;5019399;28;20473;-65
2023/08/04 05:06:13;;;;;;;3.08;1.83;;;16.10;99.90;;;;;;5034806;28;20470;-65
2023/08/04 05:08:40;;;;;;;4.07;2.05;;;16.00;99.90;;;;;;5033030;28;20353;-65
2023/08/04 05:11:06;;;;;;;2.72;1.77;;;16.00;99.90;;;;;;5035941;28;20060;-65
2023/08/04 05:13:34;;;;;;;4.47;1.95;;;16.10;99.90;;;;;;5035798;28;20092;-65
2023/08/04 05:16:00;;;;;;;3.78;2.00;;;16.10;99.90;;;;;;5032704;28;20045;-65
2023/08/04 05:18:27;;;;;;;3.92;1.92;;;16.00;99.90;;;;;;5035413;28;20045;-66
2023/08/04 05:20:55;;;;;;;5.05;1.85;;;16.20;99.90;;;;;;5035993;28;20048;-65
2023/08/04 05:23:22;;;;;;;3.17;1.67;;;16.20;99.90;;;;;;5036183;28;20057;-65
2023/08/04 05:25:48;;;;;;;3.97;1.70;;;16.20;99.90;;;;;;5051824;28;20044;-65
2023/08/04 05:28:21;;;;;;;3.17;1.88;;;16.30;99.90;;;;;;5034516;28;20041;-64
2023/08/04 05:30:49;;;;;;;3.10;1.88;;;16.20;99.90;;;;;;5036209;28;20037;-65
2023/08/04 05:33:15;;;;;;;4.40;2.17;;;16.30;99.90;;;;;;5019727;28;20053;-65
2023/08/04 05:35:46;;;;;;;3.90;1.65;;;16.40;99.90;;;;;;5035599;28;20056;-65
2023/08/04 05:38:13;;;;;;;3.05;1.83;;;16.40;99.90;;;;;;5035409;28;20048;-65
2023/08/04 05:40:43;;;;;;;5.00;1.83;;;16.40;99.90;;;;;;5035080;28;20396;-65
2023/08/04 05:43:10;;;;;;;3.75;1.85;;;16.40;99.90;;;;;;5018510;28;20464;-66
2023/08/04 05:45:38;;;;;;;3.75;1.70;;;16.60;99.90;;;;;;5023930;28;20041;-65
2023/08/04 05:48:04;;;;;;;3.75;1.85;;;16.50;99.90;;;;;;5035388;28;20045;-65
2023/08/04 05:50:31;;;;;;;4.13;1.60;;;16.70;99.90;;;;;;5034816;28;20056;-64
2023/08/04 05:52:58;;;;;;;2.63;1.33;;;16.80;99.90;;;;;;5035601;28;20048;-64
2023/08/04 05:55:24;;;;;;;3.17;1.45;;;16.90;99.90;;;;;;5034039;28;20033;-64
2023/08/04 05:57:51;;;;;;;3.83;1.83;;;17.20;99.90;;;;;;5033867;28;20045;-64
2023/08/04 06:00:17;;;;;;;3.28;1.45;;;17.40;99.90;;;;;;5034537;28;20045;-64
2023/08/04 06:02:45;;;;;;;3.40;1.60;;;17.40;99.90;;;;;;5051646;28;20049;-64
2023/08/04 06:05:30;;;;;;;4.47;1.65;;;17.50;99.90;;;;;;5017593;28;20045;-64
2023/08/04 06:07:57;;;;;;;3.25;1.83;;;17.50;99.90;;;;;;5033771;28;20053;-64
2023/08/04 06:10:24;;;;;;;3.50;1.52;;;17.50;99.90;;;;;;5033916;28;20052;-64
2023/08/04 06:12:51;;;;;;;3.63;1.95;;;17.50;99.90;;;;;;5034017;28;20053;-65
2023/08/04 06:15:17;;;;;;;2.97;1.42;;;17.50;99.90;;;;;;5033869;28;20480;-65
2023/08/04 06:17:44;;;;;;;2.40;1.42;;;17.40;99.90;;;;;;5034187;28;20041;-65
2023/08/04 06:20:10;;;;;;;2.22;1.33;;;17.40;99.90;;;;;;5018813;28;20052;-66
2023/08/04 06:22:37;;;;;;;3.88;1.50;;;17.40;99.90;;;;;;5019677;28;20055;-65
2023/08/04 06:25:03;;;;;;;2.13;1.50;;;17.40;99.90;;;;;;5033072;28;20053;-65
2023/08/04 06:27:31;;;;;;;2.30;1.45;;;17.60;99.90;;;;;;5012512;28;20045;-65
2023/08/04 06:29:59;;;;;;;2.90;1.42;;;17.60;99.90;;;;;;5035288;28;20114;-65
2023/08/04 06:32:26;;;;;;;3.38;1.55;;;17.50;99.90;;;;;;5019034;28;20130;-65
2023/08/04 06:34:53;;;;;;;2.22;1.40;;;17.60;99.90;;;;;;5034078;28;20057;-66
2023/08/04 06:37:19;;;;;;;2.88;1.25;;;17.50;99.90;;;;;;4999153;28;20045;-65
2023/08/04 06:39:46;;;;;;;3.90;1.42;;;17.50;99.90;;;;;;5015174;28;20434;-65
2023/08/04 06:42:12;;;;;;;3.78;1.60;;;17.50;99.90;;;;;;5015222;28;20053;-65
2023/08/04 06:44:40;;;;;;;3.90;1.60;;;17.50;99.90;;;;;;5016249;28;20045;-64
2023/08/04 06:47:07;;;;;;;2.92;1.75;;;17.60;99.90;;;;;;5035844;28;20060;-65
2023/08/04 06:49:34;;;;;;;4.07;1.98;;;17.40;99.90;;;;;;5053421;28;20052;-65
2023/08/04 06:52:02;;;;;;;3.00;1.38;;;17.40;99.90;;;;;;5019578;28;20053;-64
2023/08/04 06:54:31;;;;;;;2.40;1.70;;;17.50;99.90;;;;;;5035850;28;20056;-64
2023/08/04 06:56:58;;;;;;;4.25;1.90;;;17.50;99.90;;;;;;5034428;28;20418;-65
2023/08/04 06:59:24;;;;;;;4.20;1.70;;;17.50;99.90;;;;;;5034057;28;20044;-65
2023/08/04 07:01:50;;;;;;;5.80;2.28;;;17.30;99.90;;;;;;5035060;28;20400;-65
2023/08/04 07:04:17;;;;;;;3.30;1.73;;;17.20;99.90;;;;;;5035171;28;20044;-65
2023/08/04 07:06:44;;;;;;;3.17;1.98;;;17.10;99.90;;;;;;5018627;28;20063;-65
2023/08/04 07:09:11;;;;;;;4.72;1.80;;;17.10;99.90;;;;;;5034561;28;20052;-65
2023/08/04 07:11:37;;;;;;;3.00;1.80;;;17.10;99.90;;;;;;5018364;28;20061;-65
2023/08/04 07:14:04;;;;;;;3.17;1.90;;;17.20;99.90;;;;;;5034410;28;20048;-65
2023/08/04 07:16:30;;;;;;;4.82;1.90;;;17.20;99.90;;;;;;5034373;28;20049;-65
2023/08/04 07:18:56;;;;;;;3.63;1.63;;;17.10;99.90;;;;;;5033454;28;20051;-65
2023/08/04 07:21:23;;;;;;;3.05;1.70;;;17.10;99.90;;;;;;5034193;28;20055;-65
2023/08/04 07:23:49;;;;;;;2.83;1.60;;;17.00;99.90;;;;;;5033755;28;20049;-65
2023/08/04 07:26:15;;;;;;;3.65;1.80;;;17.10;99.90;;;;;;5019083;28;20044;-65
2023/08/04 07:28:42;;;;;;;2.50;1.58;;;17.00;99.90;;;;;;5034132;28;20049;-66
2023/08/04 07:31:09;;;;;;;2.25;1.63;;;17.10;99.90;;;;;;5035598;28;20049;-67
2023/08/04 07:33:40;;;;;;;3.83;1.75;;;17.00;99.90;;;;;;5035212;28;20083;-67
2023/08/04 07:36:08;;;;;;;3.03;1.63;;;17.00;99.90;;;;;;5034010;28;20106;-67
2023/08/04 07:38:34;;;;;;;2.92;1.83;;;17.00;99.90;;;;;;5035239;28;20083;-67
2023/08/04 07:41:01;;;;;;;2.25;1.70;;;17.00;99.90;;;;;;5035457;28;20049;-67
2023/08/04 07:43:27;;;;;;;3.83;1.77;;;17.00;99.90;;;;;;5033368;28;20425;-67
2023/08/04 07:45:54;;;;;;;3.88;1.90;;;17.10;99.90;;;;;;5032580;28;20045;-66
2023/08/04 07:48:27;;;;;;;5.03;2.53;;;17.10;99.90;;;;;;5034535;28;20045;-67
2023/08/04 07:51:09;;;;;;;3.92;1.90;;;17.10;99.90;;;;;;5020721;28;20064;-67
2023/08/04 07:53:49;;;;;;;3.92;1.90;;;17.10;99.90;;;;;;5028623;28;20084;-67
2023/08/04 07:56:16;;;;;;;4.65;1.95;;;17.30;99.90;;;;;;4999653;28;20443;-65
2023/08/04 07:58:42;;;;;;;3.92;1.98;;;17.40;99.90;;;;;;5014256;28;20470;-67
2023/08/04 08:01:10;;;;;;;3.72;1.92;;;17.50;99.90;;;;;;5014885;28;20056;-65
2023/08/04 08:03:37;;;;;;;3.33;2.28;;;17.60;99.90;;;;;;5032472;28;20061;-67
2023/08/04 08:06:03;;;;;;;4.88;2.20;;;17.70;99.90;;;;;;5015094;28;20048;-67
2023/08/04 08:08:30;;;;;;;3.25;1.90;;;17.80;99.90;;;;;;5014154;28;20049;-67
2023/08/04 08:10:57;;;;;;;3.03;2.05;;;17.90;99.90;;;;;;4998368;28;20045;-66
2023/08/04 08:13:23;;;;;;;4.55;2.00;;;18.00;99.90;;;;;;5031998;28;20113;-67
2023/08/04 08:15:49;;;;;;;3.88;2.17;;;18.00;99.90;;;;;;5019134;28;20053;-67
2023/08/04 08:18:16;;;;;;;2.75;1.98;;;18.10;99.90;;;;;;5029791;28;20447;-67
2023/08/04 08:20:43;;;;;;;5.35;2.03;;;18.10;99.90;;;;;;5017066;28;20041;-64
2023/08/04 08:23:10;;;;;;;3.45;2.20;;;18.30;99.90;;;;;;5018364;28;20049;-64
2023/08/04 08:25:37;;;;;;;4.07;1.70;;;18.40;99.90;;;;;;5018080;28;20052;-67
2023/08/04 08:28:03;;;;;;;3.47;1.52;;;18.50;99.90;;;;;;5016793;28;20227;-66
2023/08/04 08:30:30;;;;;;;2.88;1.63;;;18.70;99.90;;;;;;5017965;28;20061;-66
2023/08/04 08:32:56;;;;;;;2.83;1.55;;;18.80;99.90;;;;;;5018466;28;20103;-66
2023/08/04 08:35:23;;;;;;;2.60;1.50;;;19.00;99.90;;;;;;5018266;28;20103;-63
2023/08/04 08:37:49;;;;;;;3.80;1.80;;;19.30;99.90;;;;;;4986120;28;20057;-65
2023/08/04 08:40:48;;;;;;;3.63;1.60;;;19.30;99.90;;;;;;5018325;28;20046;-65
2023/08/04 08:43:15;;;;;;;2.25;1.55;;;19.30;99.90;;;;;;5037363;28;20049;-68
2023/08/04 08:45:44;;;;;;;1.75;1.30;;;19.30;99.90;;;;;;5038084;28;20049;-68
2023/08/04 08:48:11;;;;;;;3.30;1.60;;;19.30;99.90;;;;;;5055025;28;20056;-67
2023/08/04 08:50:39;;;;;;;2.50;1.50;;;19.30;99.90;;;;;;5021981;28;20056;-67
2023/08/04 08:53:10;;;;;;;2.60;1.60;;;19.30;99.90;;;;;;5039580;28;20495;-66
2023/08/04 08:55:38;;;;;;;3.22;1.60;;;19.20;99.90;;;;;;5038493;28;20049;-65
2023/08/04 08:58:05;;;;;;;3.28;1.50;;;19.10;99.90;;;;;;5038293;28;20053;-66
2023/08/04 09:00:35;;;;;;;2.60;1.90;;;19.00;99.90;;;;;;5039138;28;20485;-66
2023/08/04 09:03:04;;;;;;;2.78;1.70;;;19.00;99.90;;;;;;5038541;28;20052;-65
2023/08/04 09:05:32;;;;;;;3.00;1.52;;;19.10;99.90;;;;;;5037840;28;20037;-65
2023/08/04 09:07:58;;;;;;;2.55;1.58;;;19.10;99.90;;;;;;5037946;28;20057;-65
2023/08/04 09:10:24;;;;;;;4.15;1.73;;;19.10;99.90;;;;;;5036579;28;20116;-64
2023/08/04 09:12:56;;;;;;;3.33;1.60;;;19.20;99.90;;;;;;5018342;28;20053;-65
2023/08/04 09:15:33;;;;;;;4.22;1.75;;;19.30;99.90;;;;;;5032064;28;20110;-65
2023/08/04 09:18:00;;;;;;;4.28;1.80;;;19.60;99.90;;;;;;5054964;28;20107;-65
2023/08/04 09:20:28;;;;;;;3.60;1.70;;;19.70;99.90;;;;;;5071014;28;20052;-65
2023/08/04 09:22:55;;;;;;;2.65;1.33;;;19.70;99.90;;;;;;5037951;28;20128;-65
2023/08/04 09:25:22;;;;;;;3.40;1.70;;;19.70;99.90;;;;;;5037049;28;20045;-65
2023/08/04 09:27:51;;;;;;;3.95;1.77;;;19.90;99.90;;;;;;5021216;28;20092;-65
2023/08/04 09:30:18;;;;;;;4.05;1.45;;;20.20;99.90;;;;;;5037722;28;20432;-65
2023/08/04 09:32:52;;;;;;;3.17;1.55;;;20.40;99.90;;;;;;5037365;28;20056;-65
2023/08/04 09:35:18;;;;;;;3.75;1.73;;;20.60;99.90;;;;;;5037186;28;20048;-65
2023/08/04 09:37:44;;;;;;;3.38;1.75;;;20.50;99.90;;;;;;5037182;28;20056;-65
2023/08/04 09:40:16;;;;;;;4.32;1.85;;;20.70;99.90;;;;;;5037637;28;20459;-66
2023/08/04 09:42:43;;;;;;;5.55;2.03;;;20.40;99.90;;;;;;5022885;28;20053;-65
2023/08/04 09:45:17;;;;;;;6.80;2.00;;;20.40;99.90;;;;;;4998928;28;20050;-67
2023/08/04 09:47:48;;;;;;;4.90;1.83;;;20.50;99.90;;;;;;5015982;28;20041;-66
2023/08/04 09:50:17;;;;;;;4.20;1.92;;;20.50;99.90;;;;;;5017118;28;20057;-66
2023/08/04 09:52:43;;;;;;;5.43;2.15;;;20.50;99.90;;;;;;5016959;28;20061;-67
2023/08/04 09:55:10;;;;;;;4.30;1.83;;;20.70;99.90;;;;;;5015697;28;20053;-67
2023/08/04 09:57:38;;;;;;;4.90;2.10;;;20.70;99.90;;;;;;5017315;28;20100;-66
2023/08/04 10:00:14;;;;;;;5.78;2.00;;;20.90;99.90;;;;;;5016260;28;20051;-66
2023/08/04 10:02:41;;;;;;;5.57;2.00;;;20.90;99.90;;;;;;5015023;28;20111;-68
2023/08/04 10:05:09;;;;;;;4.13;1.85;;;21.00;99.90;;;;;;5032827;28;20052;-68
2023/08/04 10:07:36;;;;;;;5.45;1.90;;;21.00;99.90;;;;;;5016829;28;20111;-67
2023/08/04 10:10:06;;;;;;;3.90;1.80;;;21.20;99.90;;;;;;5016656;28;20045;-67
2023/08/04 10:12:33;;;;;;;6.20;1.88;;;21.30;99.90;;;;;;5016926;28;20056;-67
2023/08/04 10:14:59;;;;;;;5.63;1.88;;;21.40;99.90;;;;;;5016096;28;20060;-67
2023/08/04 10:17:27;;;;;;;6.18;1.90;;;21.30;99.90;;;;;;4997055;28;20046;-67
2023/08/04 10:20:05;;;;;;;5.78;2.10;;;21.40;99.90;;;;;;5011518;28;20057;-67
2023/08/04 10:22:32;;;;;;;4.30;2.00;;;21.40;99.90;;;;;;5015421;28;20053;-67
2023/08/04 10:24:58;;;;;;;3.97;1.63;;;21.30;99.90;;;;;;5015982;28;20385;-67
2023/08/04 10:27:26;;;;;;;4.63;2.15;;;21.40;99.90;;;;;;5013339;28;20050;-68
2023/08/04 10:30:10;;;;;;;5.68;2.20;;;21.50;99.90;;;;;;4996221;28;20426;-68
2023/08/04 10:32:38;;;;;;;5.00;2.28;;;21.50;99.90;;;;;;4997522;28;20056;-65
2023/08/04 10:35:19;;;;;;;4.75;1.80;;;21.50;99.90;;;;;;5029801;28;20089;-67
2023/08/04 10:37:58;;;;;;;5.32;1.92;;;21.50;99.90;;;;;;4996310;28;20112;-67
2023/08/04 10:40:33;;;;;;;5.38;2.13;;;21.50;99.90;;;;;;4996663;28;20046;-68
2023/08/04 10:43:08;;;;;;;6.43;2.10;;;21.40;99.90;;;;;;5013120;28;20059;-67
2023/08/04 10:46:02;;;;;;;5.78;1.95;;;21.50;99.90;;;;;;5021757;28;20044;-65
2023/08/04 10:48:29;;;;;;;5.18;1.73;;;21.50;99.90;;;;;;5035784;28;20056;-65
2023/08/04 10:50:56;;;;;;;7.68;2.25;;;21.50;99.90;;;;;;5035983;28;20123;-67
2023/08/04 10:53:23;;;;;;;5.10;2.00;;;21.60;99.90;;;;;;5036106;28;20052;-67
2023/08/04 10:55:55;;;;;;;3.70;1.73;;;21.50;99.90;;;;;;5035611;28;20053;-67
2023/08/04 10:58:22;;;;;;;;;;;21.50;99.90;;;;;;5035984;28;20071;-67
2023/08/04 11:00:48;;;;;;;6.55;1.98;;;21.20;99.90;;;;;;5036064;28;19924;-67
2023/08/04 11:03:19;;;;;;;3.05;1.70;;;21.20;99.90;;;;;;5019765;28;20476;-67
2023/08/04 11:05:47;;;;;;;;;;;21.30;99.90;;;;;;5035964;28;20469;-67
2023/08/04 11:08:14;;;;;;;3.65;1.58;;;21.20;99.90;;;;;;5035710;28;19935;-67
2023/08/04 11:10:48;;;;;;;4.07;2.03;;;21.20;99.90;;;;;;5053530;28;20063;-68
2023/08/04 11:13:17;;;;;;;4.20;1.88;;;21.20;99.90;;;;;;5035393;28;20377;-66
2023/08/04 11:15:45;;;;;;;3.85;1.88;;;21.20;99.90;;;;;;5035164;28;20045;-66
2023/08/04 11:18:26;;;;;;;4.80;1.70;;;21.10;99.90;;;;;;5052717;28;20044;-67
2023/08/04 11:20:53;;;;;;;4.65;2.08;;;20.90;99.90;;;;;;5035463;28;20044;-66
2023/08/04 11:23:26;;;;;;;5.60;1.92;;;21.00;99.90;;;;;;5035319;28;20057;-66
2023/08/04 11:25:53;;;;;;;3.40;1.75;;;21.00;99.90;;;;;;5048599;28;20041;-63
2023/08/04 11:28:21;;;;;;;5.50;1.75;;;21.00;99.90;;;;;;5052628;28;20053;-64
2023/08/04 11:30:48;;;;;;;4.47;1.95;;;21.20;99.90;;;;;;5033283;28;20457;-64
2023/08/04 11:33:16;;;;;;;4.07;1.77;;;21.30;99.90;;;;;;5018658;28;20449;-64
2023/08/04 11:35:44;;;;;;;5.40;1.80;;;21.00;99.90;;;;;;5031574;28;20047;-63
2023/08/04 11:38:10;;;;;;;4.30;1.83;;;21.00;99.90;;;;;;5052456;28;20055;-67
2023/08/04 11:40:52;;;;;;;3.30;1.80;;;21.40;99.90;;;;;;5053128;28;20362;-66
2023/08/04 11:43:19;;;;;;;3.95;2.40;;;21.40;99.90;;;;;;5052707;28;20068;-66
2023/08/04 11:45:47;;;;;;;4.75;2.22;;;21.30;99.90;;;;;;5034871;28;20049;-66
2023/08/04 11:48:15;;;;;;;3.40;2.05;;;21.50;99.90;;;;;;5035078;28;20053;-66
2023/08/04 11:50:41;;;;;;;4.40;1.88;;;21.40;99.90;;;;;;5035162;28;20064;-67
2023/08/04 11:53:07;;;;;;;6.32;2.00;;;21.40;99.90;;;;;;5053032;28;20457;-66
2023/08/04 11:55:34;;;;;;;4.50;2.22;;;21.50;99.90;;;;;;5053874;28;20041;-67
2023/08/04 11:58:00;;;;;;;4.65;1.90;;;21.60;99.90;;;;;;5038516;28;20394;-66
2023/08/04 12:00:37;;;;;;;4.95;1.77;;;21.70;99.90;;;;;;5039268;28;20037;-66
2023/08/04 12:03:04;;;;;;;4.15;2.00;;;21.70;99.90;;;;;;5056636;28;20350;-63
2023/08/04 12:05:32;;;;;;;4.97;1.85;;;21.60;99.90;;;;;;5055779;28;20041;-66
2023/08/04 12:08:10;;;;;;;6.93;1.85;;;21.30;99.90;;;;;;5038769;28;20053;-66
2023/08/04 12:10:37;;;;;;;3.33;1.73;;;21.20;99.90;;;;;;5039059;28;20452;-66
2023/08/04 12:13:03;;;;;;;3.13;1.70;;;21.20;99.90;;;;;;5056759;28;20048;-67
2023/08/04 12:15:30;;;;;;;4.30;1.88;;;21.00;99.90;;;;;;5038660;28;20076;-66
2023/08/04 12:17:56;;;;;;;4.57;2.05;;;21.10;99.90;;;;;;5038382;28;20048;-63
2023/08/04 12:20:23;;;;;;;3.28;1.80;;;21.30;99.90;;;;;;5038803;28;20067;-64
2023/08/04 12:22:49;;;;;;;6.65;2.25;;;21.50;99.90;;;;;;5038434;28;20049;-64
2023/08/04 12:25:15;;;;;;;4.95;2.10;;;21.60;99.90;;;;;;5036699;28;20056;-67
2023/08/04 12:27:42;;;;;;;3.90;2.13;;;21.90;99.90;;;;;;5036191;28;20061;-64
2023/08/04 12:30:08;;;;;;;6.00;2.15;;;21.90;99.90;;;;;;5036521;28;20065;-63
2023/08/04 12:32:35;;;;;;;6.07;2.13;;;21.90;99.90;;;;;;5018728;28;20453;-66
2023/08/04 12:35:01;;;;;;;8.48;2.47;;;21.90;99.90;;;;;;5036195;28;20466;-66
2023/08/04 12:37:27;;;;;;;6.30;2.22;;;22.00;99.90;;;;;;5037410;28;20084;-67
2023/08/04 12:39:53;;;;;;;6.15;2.17;;;21.80;99.90;;;;;;5056165;28;20060;-66
2023/08/04 12:42:21;;;;;;;4.82;2.33;;;21.70;99.90;;;;;;5038346;28;20057;-66
2023/08/04 12:44:47;;;;;;;4.47;2.40;;;21.50;99.90;;;;;;5038504;28;20049;-63
2023/08/04 12:47:13;;;;;;;4.28;2.50;;;21.40;99.90;;;;;;5038034;28;20049;-66
2023/08/04 12:49:39;;;;;;;4.40;2.03;;;21.40;99.90;;;;;;5055786;28;20053;-66
2023/08/04 12:52:06;;;;;;;5.00;2.10;;;21.50;99.90;;;;;;5056271;28;20096;-65